PWSweather.com
Personal Weather Stations
Station Observations
BRISTOL
HorfieldFilton, BristolGB BS7

HorfieldFiltonBristolGB BS7

Lat: 51.5, Lon: -2.576

Elevation: 272

Station Type: Davis VP2

http://www.martynhicks.co.uk/weather/data.php

Latest ConditionsUpdated 5:20:01 PM GMT Friday, Dec 9, 2016
Currently Today's Max Today's Min Today's Average
Temperature 53.6°F12.0°C 57.5°F14.2°C 53.3°F11.8°C 55.1°F12.8°C
Dew Point 51.0°F10.6°C 55.1°F12.8°C 51.0°F10.6°C 52.7°F11.5°C
Winds 2.3 mph SSW3.7 kmh SSW 6.9 mph SW11.1 kmh SW - 2.7 mph 4.3 kmh
Wind Gusts 3.5 mph5.6 kmh 12.7 mph20.4 kmh - -
Humidity 91% 99% 82% 92%
Pressure 30.21 in1023.0 mb 30.28 in1025.4 mb 30.21 in1023.0 mb -
Hour Temp Dew Point Humidity Winds Wind Gusts Pressure Precip Precip Rate Daily Precip Total
05:20 PM 53.6°F12.0°C 51.0°F10.6°C 91% 2.3 mph SSW3.7 kmh SSW 3.5 mph5.6 kmh 30.21 in1023.0 mb - 0.00 in0.0 mm 0.00 in0.0 mm
05:10 PM 53.7°F12.1°C 51.1°F10.6°C 91% 3.5 mph SSE5.6 kmh SSE 10.4 mph16.7 kmh 30.21 in1023.0 mb - 0.00 in0.0 mm 0.00 in0.0 mm
05:00 PM 53.9°F12.2°C 51.0°F10.6°C 90% 1.2 mph SW1.9 kmh SW 3.5 mph5.6 kmh 30.22 in1023.4 mb - 0.00 in0.0 mm 0.00 in0.0 mm
04:50 PM 54.1°F12.3°C 51.2°F10.7°C 90% 2.3 mph SSW3.7 kmh SSW 5.8 mph9.3 kmh 30.22 in1023.4 mb - 0.00 in0.0 mm 0.00 in0.0 mm
04:40 PM 54.2°F12.3°C 51.3°F10.7°C 90% 2.3 mph SW3.7 kmh SW 4.6 mph7.4 kmh 30.21 in1023.0 mb - 0.00 in0.0 mm 0.00 in0.0 mm
04:30 PM 54.3°F12.4°C 51.4°F10.8°C 90% 4.6 mph SSE7.4 kmh SSE 8.1 mph13.0 kmh 30.21 in1023.0 mb - 0.00 in0.0 mm 0.00 in0.0 mm
04:20 PM 54.4°F12.4°C 51.2°F10.7°C 89% 1.2 mph S1.9 kmh S 3.5 mph5.6 kmh 30.21 in1023.0 mb - 0.00 in0.0 mm 0.00 in0.0 mm
04:10 PM 54.6°F12.6°C 51.4°F10.8°C 89% 3.5 mph SSW5.6 kmh SSW 5.8 mph9.3 kmh 30.21 in1023.0 mb - 0.00 in0.0 mm 0.00 in0.0 mm
04:00 PM 54.8°F12.7°C 51.6°F10.9°C 89% 4.6 mph S7.4 kmh S 4.6 mph7.4 kmh 30.21 in1023.0 mb - 0.00 in0.0 mm 0.00 in0.0 mm
03:50 PM 55.0°F12.8°C 51.5°F10.8°C 88% 1.2 mph SSW1.9 kmh SSW 4.6 mph7.4 kmh 30.22 in1023.4 mb - 0.00 in0.0 mm 0.00 in0.0 mm
03:40 PM 55.2°F12.9°C 51.7°F10.9°C 88% 2.3 mph S3.7 kmh S 9.2 mph14.8 kmh 30.21 in1023.0 mb - 0.00 in0.0 mm 0.00 in0.0 mm
03:30 PM 55.4°F13.0°C 51.6°F10.9°C 87% 2.3 mph SSW3.7 kmh SSW 3.5 mph5.6 kmh 30.22 in1023.4 mb - 0.00 in0.0 mm 0.00 in0.0 mm
03:20 PM 55.7°F13.2°C 51.6°F10.9°C 86% 2.3 mph SSW3.7 kmh SSW 9.2 mph14.8 kmh 30.22 in1023.4 mb - 0.00 in0.0 mm 0.00 in0.0 mm
03:10 PM 56.2°F13.4°C 51.7°F10.9°C 85% 3.5 mph SSW5.6 kmh SSW 9.2 mph14.8 kmh 30.22 in1023.4 mb - 0.00 in0.0 mm 0.00 in0.0 mm
03:00 PM 56.7°F13.7°C 51.9°F11.1°C 84% 3.5 mph S5.6 kmh S 3.5 mph5.6 kmh 30.22 in1023.4 mb - 0.00 in0.0 mm 0.00 in0.0 mm
02:50 PM 57.0°F13.9°C 51.9°F11.1°C 83% 1.2 mph S1.9 kmh S 4.6 mph7.4 kmh 30.22 in1023.4 mb - 0.00 in0.0 mm 0.00 in0.0 mm
02:40 PM 57.1°F13.9°C 51.7°F10.9°C 82% 4.6 mph SW7.4 kmh SW 8.1 mph13.0 kmh 30.22 in1023.4 mb - 0.00 in0.0 mm 0.00 in0.0 mm
02:30 PM 57.2°F14.0°C 51.7°F10.9°C 82% 4.6 mph SW7.4 kmh SW 5.8 mph9.3 kmh 30.23 in1023.7 mb - 0.00 in0.0 mm 0.00 in0.0 mm
02:20 PM 57.2°F14.0°C 51.8°F11.0°C 82% 6.9 mph SW11.1 kmh SW 11.5 mph18.5 kmh 30.23 in1023.7 mb - 0.00 in0.0 mm 0.00 in0.0 mm
02:10 PM 57.3°F14.1°C 52.2°F11.2°C 83% 3.5 mph SW5.6 kmh SW 8.1 mph13.0 kmh 30.23 in1023.7 mb - 0.00 in0.0 mm 0.00 in0.0 mm
02:00 PM 57.4°F14.1°C 52.2°F11.2°C 83% 3.5 mph SW5.6 kmh SW 9.2 mph14.8 kmh 30.23 in1023.7 mb - 0.00 in0.0 mm 0.00 in0.0 mm
01:50 PM 57.5°F14.2°C 52.4°F11.3°C 83% 5.8 mph SW9.3 kmh SW 9.2 mph14.8 kmh 30.23 in1023.7 mb - 0.00 in0.0 mm 0.00 in0.0 mm
01:40 PM 57.4°F14.1°C 52.6°F11.4°C 84% 5.8 mph SW9.3 kmh SW 12.7 mph20.4 kmh 30.24 in1024.0 mb - 0.00 in0.0 mm 0.00 in0.0 mm
01:30 PM 57.3°F14.1°C 52.8°F11.6°C 85% 5.8 mph SW9.3 kmh SW 12.7 mph20.4 kmh 30.24 in1024.0 mb - 0.00 in0.0 mm 0.00 in0.0 mm
01:20 PM 57.0°F13.9°C 52.9°F11.6°C 86% 3.5 mph SW5.6 kmh SW 4.6 mph7.4 kmh 30.24 in1024.0 mb - 0.00 in0.0 mm 0.00 in0.0 mm
01:10 PM 56.9°F13.8°C 52.8°F11.6°C 86% 5.8 mph SW9.3 kmh SW 12.7 mph20.4 kmh 30.25 in1024.4 mb - 0.00 in0.0 mm 0.00 in0.0 mm
01:00 PM 56.9°F13.8°C 53.1°F11.7°C 87% 3.5 mph SW5.6 kmh SW 10.4 mph16.7 kmh 30.25 in1024.4 mb - 0.00 in0.0 mm 0.00 in0.0 mm
12:50 PM 56.9°F13.8°C 53.1°F11.7°C 87% 4.6 mph SSW7.4 kmh SSW 9.2 mph14.8 kmh 30.25 in1024.4 mb - 0.00 in0.0 mm 0.00 in0.0 mm
12:40 PM 56.9°F13.8°C 53.1°F11.7°C 87% 5.8 mph SW9.3 kmh SW 9.2 mph14.8 kmh 30.25 in1024.4 mb - 0.00 in0.0 mm 0.00 in0.0 mm
12:30 PM 56.9°F13.8°C 53.1°F11.7°C 87% 6.9 mph SW11.1 kmh SW 11.5 mph18.5 kmh 30.26 in1024.7 mb - 0.00 in0.0 mm 0.00 in0.0 mm
12:20 PM 56.9°F13.8°C 53.1°F11.7°C 87% 6.9 mph SW11.1 kmh SW 11.5 mph18.5 kmh 30.26 in1024.7 mb - 0.00 in0.0 mm 0.00 in0.0 mm
12:10 PM 56.9°F13.8°C 53.1°F11.7°C 87% 6.9 mph SW11.1 kmh SW 11.5 mph18.5 kmh 30.26 in1024.7 mb - 0.00 in0.0 mm 0.00 in0.0 mm
12:00 PM 56.9°F13.8°C 53.1°F11.7°C 87% 6.9 mph SW11.1 kmh SW 9.2 mph14.8 kmh 30.26 in1024.7 mb - 0.00 in0.0 mm 0.00 in0.0 mm
11:50 AM 56.9°F13.8°C 53.1°F11.7°C 87% 5.8 mph WSW9.3 kmh WSW 12.7 mph20.4 kmh 30.27 in1025.1 mb - 0.00 in0.0 mm 0.00 in0.0 mm
11:40 AM 56.9°F13.8°C 53.1°F11.7°C 87% 3.5 mph WSW5.6 kmh WSW 6.9 mph11.1 kmh 30.27 in1025.1 mb - 0.00 in0.0 mm 0.00 in0.0 mm
11:30 AM 56.9°F13.8°C 53.4°F11.9°C 88% 4.6 mph SW7.4 kmh SW 10.4 mph16.7 kmh 30.27 in1025.1 mb - 0.00 in0.0 mm 0.00 in0.0 mm
11:20 AM 56.3°F13.5°C 52.8°F11.6°C 88% 3.5 mph S5.6 kmh S 5.8 mph9.3 kmh 30.27 in1025.1 mb - 0.00 in0.0 mm 0.00 in0.0 mm
11:10 AM 56.2°F13.4°C 53.0°F11.7°C 89% 4.6 mph SW7.4 kmh SW 8.1 mph13.0 kmh 30.27 in1025.1 mb - 0.00 in0.0 mm 0.00 in0.0 mm
11:00 AM 55.9°F13.3°C 52.7°F11.5°C 89% 5.8 mph SW9.3 kmh SW 11.5 mph18.5 kmh 30.27 in1025.1 mb - 0.00 in0.0 mm 0.00 in0.0 mm
10:50 AM 55.7°F13.2°C 52.8°F11.6°C 90% 2.3 mph SW3.7 kmh SW 3.5 mph5.6 kmh 30.27 in1025.1 mb - 0.00 in0.0 mm 0.00 in0.0 mm
10:40 AM 55.5°F13.1°C 52.6°F11.4°C 90% Calm Calm 2.3 mph3.7 kmh 30.27 in1025.1 mb - 0.00 in0.0 mm 0.00 in0.0 mm
10:30 AM 55.4°F13.0°C 52.5°F11.4°C 90% 3.5 mph SW5.6 kmh SW 3.5 mph5.6 kmh 30.27 in1025.1 mb - 0.00 in0.0 mm 0.00 in0.0 mm
10:20 AM 55.3°F12.9°C 52.7°F11.5°C 91% 3.5 mph SW5.6 kmh SW 5.8 mph9.3 kmh 30.27 in1025.1 mb - 0.00 in0.0 mm 0.00 in0.0 mm
10:10 AM 55.1°F12.8°C 52.5°F11.4°C 91% 2.3 mph SW3.7 kmh SW 4.6 mph7.4 kmh 30.27 in1025.1 mb - 0.00 in0.0 mm 0.00 in0.0 mm
10:00 AM 54.8°F12.7°C 52.5°F11.4°C 92% 4.6 mph SSW7.4 kmh SSW 10.4 mph16.7 kmh 30.26 in1024.7 mb - 0.00 in0.0 mm 0.00 in0.0 mm
09:50 AM 54.5°F12.5°C 52.5°F11.4°C 93% 4.6 mph SW7.4 kmh SW 10.4 mph16.7 kmh 30.27 in1025.1 mb - 0.00 in0.0 mm 0.00 in0.0 mm
09:40 AM 54.1°F12.3°C 52.2°F11.2°C 93% 3.5 mph S5.6 kmh S 3.5 mph5.6 kmh 30.27 in1025.1 mb - 0.00 in0.0 mm 0.00 in0.0 mm
09:30 AM 53.8°F12.1°C 51.8°F11.0°C 93% 1.2 mph SSW1.9 kmh SSW 8.1 mph13.0 kmh 30.27 in1025.1 mb - 0.00 in0.0 mm 0.00 in0.0 mm
09:20 AM 53.5°F11.9°C 51.5°F10.8°C 93% 2.3 mph SSE3.7 kmh SSE 4.6 mph7.4 kmh 30.26 in1024.7 mb - 0.00 in0.0 mm 0.00 in0.0 mm
09:10 AM 53.4°F11.9°C 51.4°F10.8°C 93% 1.2 mph S1.9 kmh S 1.2 mph1.9 kmh 30.26 in1024.7 mb - 0.00 in0.0 mm 0.00 in0.0 mm
09:00 AM 53.4°F11.9°C 51.4°F10.8°C 93% 1.2 mph S1.9 kmh S 4.6 mph7.4 kmh 30.26 in1024.7 mb - 0.00 in0.0 mm 0.00 in0.0 mm
08:50 AM 53.4°F11.9°C 51.4°F10.8°C 93% 1.2 mph S1.9 kmh S 3.5 mph5.6 kmh 30.26 in1024.7 mb - 0.00 in0.0 mm 0.00 in0.0 mm
08:40 AM 53.5°F11.9°C 51.5°F10.8°C 93% 1.2 mph S1.9 kmh S 4.6 mph7.4 kmh 30.26 in1024.7 mb - 0.00 in0.0 mm 0.00 in0.0 mm
08:30 AM 53.5°F11.9°C 51.5°F10.8°C 93% 1.2 mph S1.9 kmh S 3.5 mph5.6 kmh 30.27 in1025.1 mb - 0.00 in0.0 mm 0.00 in0.0 mm
08:20 AM 53.4°F11.9°C 51.7°F10.9°C 94% 2.3 mph S3.7 kmh S 4.6 mph7.4 kmh 30.26 in1024.7 mb - 0.00 in0.0 mm 0.00 in0.0 mm
08:10 AM 53.4°F11.9°C 51.7°F10.9°C 94% 1.2 mph S1.9 kmh S 3.5 mph5.6 kmh 30.26 in1024.7 mb - 0.00 in0.0 mm 0.00 in0.0 mm
08:00 AM 53.3°F11.8°C 51.6°F10.9°C 94% 1.2 mph S1.9 kmh S 3.5 mph5.6 kmh 30.26 in1024.7 mb - 0.00 in0.0 mm 0.00 in0.0 mm
07:50 AM 53.3°F11.8°C 51.3°F10.7°C 93% 2.3 mph SSW3.7 kmh SSW 3.5 mph5.6 kmh 30.25 in1024.4 mb - 0.00 in0.0 mm 0.00 in0.0 mm
07:40 AM 53.5°F11.9°C 51.8°F11.0°C 94% Calm Calm 3.5 mph5.6 kmh 30.25 in1024.4 mb - 0.00 in0.0 mm 0.00 in0.0 mm
07:30 AM 53.6°F12.0°C 51.9°F11.1°C 94% Calm Calm 3.5 mph5.6 kmh 30.25 in1024.4 mb - 0.00 in0.0 mm 0.00 in0.0 mm
07:20 AM 53.7°F12.1°C 52.0°F11.1°C 94% 2.3 mph S3.7 kmh S 8.1 mph13.0 kmh 30.25 in1024.4 mb - 0.00 in0.0 mm 0.00 in0.0 mm
07:10 AM 53.8°F12.1°C 52.1°F11.2°C 94% 3.5 mph SW5.6 kmh SW 6.9 mph11.1 kmh 30.25 in1024.4 mb - 0.00 in0.0 mm 0.00 in0.0 mm
07:00 AM 53.8°F12.1°C 52.1°F11.2°C 94% 3.5 mph SSW5.6 kmh SSW 4.6 mph7.4 kmh 30.25 in1024.4 mb - 0.00 in0.0 mm 0.00 in0.0 mm
06:50 AM 53.9°F12.2°C 52.2°F11.2°C 94% 4.6 mph SSW7.4 kmh SSW 6.9 mph11.1 kmh 30.26 in1024.7 mb - 0.00 in0.0 mm 0.00 in0.0 mm
06:40 AM 54.0°F12.2°C 52.3°F11.3°C 94% 3.5 mph SW5.6 kmh SW 6.9 mph11.1 kmh 30.25 in1024.4 mb - 0.00 in0.0 mm 0.00 in0.0 mm
06:30 AM 54.0°F12.2°C 52.6°F11.4°C 95% 3.5 mph SSW5.6 kmh SSW 6.9 mph11.1 kmh 30.25 in1024.4 mb - 0.00 in0.0 mm 0.00 in0.0 mm
06:20 AM 54.1°F12.3°C 52.4°F11.3°C 94% 1.2 mph SW1.9 kmh SW 4.6 mph7.4 kmh 30.25 in1024.4 mb - 0.00 in0.0 mm 0.00 in0.0 mm
06:10 AM 54.1°F12.3°C 52.7°F11.5°C 95% 4.6 mph SSW7.4 kmh SSW 9.2 mph14.8 kmh 30.25 in1024.4 mb - 0.00 in0.0 mm 0.00 in0.0 mm
06:00 AM 53.9°F12.2°C 52.5°F11.4°C 95% 3.5 mph SSW5.6 kmh SSW 6.9 mph11.1 kmh 30.25 in1024.4 mb - 0.00 in0.0 mm 0.00 in0.0 mm
05:50 AM 53.7°F12.1°C 52.3°F11.3°C 95% 1.2 mph SSW1.9 kmh SSW 3.5 mph5.6 kmh 30.25 in1024.4 mb - 0.00 in0.0 mm 0.00 in0.0 mm
05:40 AM 53.5°F11.9°C 52.1°F11.2°C 95% 1.2 mph SSW1.9 kmh SSW 1.2 mph1.9 kmh 30.26 in1024.7 mb - 0.00 in0.0 mm 0.00 in0.0 mm
05:30 AM 53.5°F11.9°C 52.1°F11.2°C 95% Calm Calm 1.2 mph1.9 kmh 30.25 in1024.4 mb - 0.00 in0.0 mm 0.00 in0.0 mm
05:20 AM 53.6°F12.0°C 52.2°F11.2°C 95% Calm Calm 2.3 mph3.7 kmh 30.25 in1024.4 mb - 0.00 in0.0 mm 0.00 in0.0 mm
05:10 AM 53.7°F12.1°C 52.3°F11.3°C 95% 1.2 mph SSW1.9 kmh SSW 5.8 mph9.3 kmh 30.25 in1024.4 mb - 0.00 in0.0 mm 0.00 in0.0 mm
05:00 AM 53.9°F12.2°C 52.5°F11.4°C 95% Calm Calm 1.2 mph1.9 kmh 30.26 in1024.7 mb - 0.00 in0.0 mm 0.00 in0.0 mm
04:50 AM 54.0°F12.2°C 52.6°F11.4°C 95% 1.2 mph SSW1.9 kmh SSW 4.6 mph7.4 kmh 30.26 in1024.7 mb - 0.00 in0.0 mm 0.00 in0.0 mm
04:40 AM 54.1°F12.3°C 53.0°F11.7°C 96% 1.2 mph SSW1.9 kmh SSW 5.8 mph9.3 kmh 30.26 in1024.7 mb - 0.00 in0.0 mm 0.00 in0.0 mm
04:30 AM 54.2°F12.3°C 52.8°F11.6°C 95% 3.5 mph SSW5.6 kmh SSW 4.6 mph7.4 kmh 30.27 in1025.1 mb - 0.00 in0.0 mm 0.00 in0.0 mm
04:20 AM 54.4°F12.4°C 53.3°F11.8°C 96% 1.2 mph SSW1.9 kmh SSW 3.5 mph5.6 kmh 30.27 in1025.1 mb - 0.00 in0.0 mm 0.00 in0.0 mm
04:10 AM 54.6°F12.6°C 53.5°F11.9°C 96% 1.2 mph SSW1.9 kmh SSW 2.3 mph3.7 kmh 30.27 in1025.1 mb - 0.00 in0.0 mm 0.00 in0.0 mm
04:00 AM 54.9°F12.7°C 53.8°F12.1°C 96% 1.2 mph SSW1.9 kmh SSW 3.5 mph5.6 kmh 30.27 in1025.1 mb - 0.00 in0.0 mm 0.00 in0.0 mm
03:50 AM 55.1°F12.8°C 54.0°F12.2°C 96% Calm Calm 3.5 mph5.6 kmh 30.27 in1025.1 mb - 0.00 in0.0 mm 0.00 in0.0 mm
03:40 AM 55.2°F12.9°C 54.1°F12.3°C 96% 1.2 mph SSW1.9 kmh SSW 5.8 mph9.3 kmh 30.27 in1025.1 mb - 0.00 in0.0 mm 0.00 in0.0 mm
03:30 AM 55.4°F13.0°C 55.1°F12.8°C 99% Calm Calm 3.5 mph5.6 kmh 30.27 in1025.1 mb - 0.00 in0.0 mm 0.00 in0.0 mm
03:20 AM 55.5°F13.1°C 54.4°F12.4°C 96% 1.2 mph SW1.9 kmh SW 3.5 mph5.6 kmh 30.28 in1025.4 mb - 0.00 in0.0 mm 0.00 in0.0 mm
03:10 AM 55.5°F13.1°C 54.4°F12.4°C 96% 2.3 mph SSW3.7 kmh SSW 4.6 mph7.4 kmh 30.27 in1025.1 mb - 0.00 in0.0 mm 0.00 in0.0 mm
03:00 AM 55.6°F13.1°C 54.5°F12.5°C 96% 2.3 mph SW3.7 kmh SW 4.6 mph7.4 kmh 30.27 in1025.1 mb - 0.00 in0.0 mm 0.00 in0.0 mm
02:50 AM 55.6°F13.1°C 54.5°F12.5°C 96% Calm Calm 2.3 mph3.7 kmh 30.27 in1025.1 mb - 0.00 in0.0 mm 0.00 in0.0 mm
02:40 AM 55.7°F13.2°C 54.6°F12.6°C 96% 2.3 mph SSW3.7 kmh SSW 4.6 mph7.4 kmh 30.27 in1025.1 mb - 0.00 in0.0 mm 0.00 in0.0 mm
02:30 AM 55.7°F13.2°C 54.6°F12.6°C 96% 1.2 mph SSW1.9 kmh SSW 2.3 mph3.7 kmh 30.27 in1025.1 mb - 0.00 in0.0 mm 0.00 in0.0 mm
02:20 AM 55.7°F13.2°C 54.6°F12.6°C 96% 1.2 mph SSW1.9 kmh SSW 1.2 mph1.9 kmh 30.27 in1025.1 mb - 0.00 in0.0 mm 0.00 in0.0 mm
02:10 AM 55.9°F13.3°C 54.8°F12.7°C 96% 1.2 mph SSW1.9 kmh SSW 3.5 mph5.6 kmh 30.28 in1025.4 mb - 0.00 in0.0 mm 0.00 in0.0 mm
02:00 AM 55.9°F13.3°C 54.8°F12.7°C 96% 1.2 mph SSW1.9 kmh SSW 3.5 mph5.6 kmh 30.28 in1025.4 mb - 0.00 in0.0 mm 0.00 in0.0 mm
01:50 AM 56.0°F13.3°C 54.8°F12.7°C 96% 1.2 mph SSW1.9 kmh SSW 5.8 mph9.3 kmh 30.27 in1025.1 mb - 0.00 in0.0 mm 0.00 in0.0 mm
01:40 AM 55.9°F13.3°C 54.8°F12.7°C 96% 4.6 mph SW7.4 kmh SW 8.1 mph13.0 kmh 30.28 in1025.4 mb - 0.00 in0.0 mm 0.00 in0.0 mm
01:30 AM 55.6°F13.1°C 54.5°F12.5°C 96% 3.5 mph SSW5.6 kmh SSW 4.6 mph7.4 kmh 30.27 in1025.1 mb - 0.00 in0.0 mm 0.00 in0.0 mm
01:20 AM 55.4°F13.0°C 54.3°F12.4°C 96% Calm Calm 3.5 mph5.6 kmh 30.28 in1025.4 mb - 0.00 in0.0 mm 0.00 in0.0 mm
01:10 AM 55.4°F13.0°C 54.3°F12.4°C 96% 1.2 mph SSW1.9 kmh SSW 2.3 mph3.7 kmh 30.28 in1025.4 mb - 0.00 in0.0 mm 0.00 in0.0 mm
01:00 AM 55.4°F13.0°C 54.3°F12.4°C 96% 1.2 mph SSW1.9 kmh SSW 3.5 mph5.6 kmh 30.28 in1025.4 mb - 0.00 in0.0 mm 0.00 in0.0 mm
12:50 AM 55.4°F13.0°C 54.3°F12.4°C 96% Calm Calm -- 30.28 in1025.4 mb - 0.00 in0.0 mm 0.00 in0.0 mm
12:40 AM 55.3°F12.9°C 54.2°F12.3°C 96% 2.3 mph SW3.7 kmh SW 4.6 mph7.4 kmh 30.28 in1025.4 mb - 0.00 in0.0 mm 0.00 in0.0 mm
12:30 AM 55.3°F12.9°C 54.2°F12.3°C 96% 2.3 mph SSW3.7 kmh SSW 5.8 mph9.3 kmh 30.27 in1025.1 mb - 0.00 in0.0 mm 0.00 in0.0 mm
12:20 AM 55.2°F12.9°C 53.8°F12.1°C 95% 1.2 mph SSW1.9 kmh SSW 5.8 mph9.3 kmh 30.27 in1025.1 mb - 0.00 in0.0 mm 0.00 in0.0 mm
12:10 AM 55.2°F12.9°C 53.8°F12.1°C 95% 1.2 mph S1.9 kmh S 5.8 mph9.3 kmh 30.27 in1025.1 mb - 0.00 in0.0 mm 0.00 in0.0 mm
12:00 AM 55.2°F12.9°C 54.1°F12.3°C 96% 1.2 mph S1.9 kmh S 3.5 mph5.6 kmh 30.27 in1025.1 mb - 0.00 in0.0 mm 0.00 in0.0 mm